Time;durP1;ratioP1;P1;durP2;ratioP2;P2;SDS_P1;SDS_P2;PMS_P1;PMS_P2;Temp;Humidity;BMP_temperature;BMP_pressure;BME280_temperature;BME280_humidity;BME280_pressure;Samples;Min_cycle;Max_cycle;Signal;HPM_P1;HPM_P2
2022/05/19 00:01:44;;;;;;;1.65;1.55;;;15.30;99.90;;;;;;5007546;28;20030;-80
2022/05/19 00:04:10;;;;;;;1.20;1.10;;;15.30;99.90;;;;;;5008979;28;20032;-78
2022/05/19 00:06:35;;;;;;;8.00;1.70;;;15.20;99.90;;;;;;4996844;28;20026;-80
2022/05/19 00:09:01;;;;;;;1.55;1.25;;;15.20;99.90;;;;;;5004555;28;20029;-79
2022/05/19 00:11:31;;;;;;;3.08;1.50;;;15.20;99.90;;;;;;5008905;28;20030;-79
2022/05/19 00:13:57;;;;;;;2.00;1.48;;;15.20;99.90;;;;;;5009013;28;20018;-79
2022/05/19 00:16:23;;;;;;;1.55;1.45;;;15.30;99.90;;;;;;5008873;28;20056;-78
2022/05/19 00:18:49;;;;;;;1.30;1.20;;;15.40;99.90;;;;;;5008770;28;20504;-79
2022/05/19 00:21:14;;;;;;;2.35;1.10;;;15.40;99.90;;;;;;5009236;28;20037;-78
2022/05/19 00:23:40;;;;;;;1.98;1.20;;;15.40;99.90;;;;;;5010240;28;20058;-78
2022/05/19 00:26:06;;;;;;;1.02;1.02;;;15.50;99.90;;;;;;5009847;28;20022;-82
2022/05/19 00:28:31;;;;;;;1.75;1.23;;;15.50;99.90;;;;;;5002802;28;20219;-78
2022/05/19 00:30:57;;;;;;;2.40;1.20;;;15.40;99.90;;;;;;4988688;28;20042;-77
2022/05/19 00:33:23;;;;;;;1.70;1.48;;;15.40;99.90;;;;;;4995776;28;20080;-77
2022/05/19 00:35:49;;;;;;;2.80;1.10;;;15.40;99.90;;;;;;5020950;28;20053;-77
2022/05/19 00:38:15;;;;;;;3.20;1.08;;;15.50;99.90;;;;;;5019569;28;20029;-78
2022/05/19 00:40:48;;;;;;;1.42;1.33;;;15.40;99.90;;;;;;5015060;28;20061;-78
2022/05/19 00:43:16;;;;;;;7.88;1.98;;;15.40;99.90;;;;;;5017829;28;20356;-80
2022/05/19 00:45:55;;;;;;;1.73;1.10;;;15.30;99.90;;;;;;5029776;28;20292;-78
2022/05/19 00:48:28;;;;;;;1.42;1.17;;;15.30;99.90;;;;;;5011057;28;20540;-77
2022/05/19 00:50:58;;;;;;;2.33;1.55;;;15.20;99.90;;;;;;5013437;28;20125;-77
2022/05/19 00:53:45;;;;;;;2.30;1.30;;;15.10;99.90;;;;;;5014116;28;20032;-77
2022/05/19 00:56:33;;;;;;;2.47;1.55;;;15.40;99.90;;;;;;5011090;28;20026;-78
2022/05/19 00:59:09;;;;;;;1.17;1.10;;;15.00;99.90;;;;;;4993165;28;20081;-78
2022/05/19 01:01:43;;;;;;;3.47;1.42;;;15.00;99.90;;;;;;4998421;28;20269;-79
2022/05/19 01:04:11;;;;;;;1.65;1.45;;;15.00;99.90;;;;;;4997475;28;20440;-77
2022/05/19 01:06:38;;;;;;;2.20;2.00;;;14.90;99.90;;;;;;4993422;28;20027;-77
2022/05/19 01:09:12;;;;;;;1.63;1.20;;;14.90;99.90;;;;;;4997690;28;20014;-77
2022/05/19 01:11:38;;;;;;;2.50;1.45;;;14.90;99.90;;;;;;5014737;28;20037;-77
2022/05/19 01:14:06;;;;;;;2.20;1.38;;;14.80;99.90;;;;;;5031075;28;20427;-77
2022/05/19 01:16:32;;;;;;;1.40;1.30;;;14.80;99.90;;;;;;5015264;28;20045;-77
2022/05/19 01:18:58;;;;;;;1.25;1.15;;;14.80;99.90;;;;;;5030812;28;20037;-76
2022/05/19 01:21:30;;;;;;;1.85;1.05;;;14.90;99.90;;;;;;5031413;28;20245;-77
2022/05/19 01:24:19;;;;;;;2.08;1.40;;;14.90;99.90;;;;;;5007108;28;20038;-77
2022/05/19 01:26:55;;;;;;;2.95;1.45;;;14.90;99.90;;;;;;4994384;28;20052;-77
2022/05/19 01:29:24;;;;;;;1.60;1.40;;;14.80;99.90;;;;;;4992910;28;20030;-76
2022/05/19 01:31:59;;;;;;;1.45;1.35;;;14.80;99.90;;;;;;4996478;28;20522;-77
2022/05/19 01:34:29;;;;;;;1.30;1.20;;;14.70;99.90;;;;;;4994269;28;20037;-77
2022/05/19 01:36:54;;;;;;;1.50;1.40;;;14.70;99.90;;;;;;4993093;28;20033;-77
2022/05/19 01:39:26;;;;;;;3.03;1.33;;;14.70;99.90;;;;;;4995603;28;20486;-77
2022/05/19 01:42:29;;;;;;;2.38;1.92;;;14.60;99.90;;;;;;4992206;28;20031;-77
2022/05/19 01:45:32;;;;;;;1.55;1.45;;;14.50;99.90;;;;;;4993136;28;20026;-77
2022/05/19 01:47:57;;;;;;;4.60;2.75;;;14.50;99.90;;;;;;4991217;28;20030;-76
2022/05/19 01:50:52;;;;;;;2.88;1.40;;;14.40;99.90;;;;;;4990908;28;20041;-76
2022/05/19 01:53:22;;;;;;;2.65;2.17;;;14.30;99.90;;;;;;4990703;28;20101;-77
2022/05/19 01:56:14;;;;;;;2.95;1.77;;;14.30;99.90;;;;;;4991862;28;20022;-77
2022/05/19 01:58:52;;;;;;;1.58;1.48;;;14.30;99.90;;;;;;4983963;28;20034;-77
2022/05/19 02:01:21;;;;;;;1.92;1.83;;;14.30;99.90;;;;;;4990770;28;20057;-77
2022/05/19 02:03:59;;;;;;;;;;;14.30;99.90;;;;;;4989641;28;20027;-78
2022/05/19 02:06:40;;;;;;;2.00;1.50;;;14.20;99.90;;;;;;4990351;28;19906;-77
2022/05/19 02:09:10;;;;;;;1.52;1.40;;;14.20;99.90;;;;;;4990166;28;20035;-77
2022/05/19 02:11:43;;;;;;;1.60;1.50;;;14.20;99.90;;;;;;4993251;28;20067;-77
2022/05/19 02:14:13;;;;;;;1.58;1.45;;;14.10;99.90;;;;;;4988997;28;20081;-77
2022/05/19 02:16:42;;;;;;;1.73;1.52;;;14.10;99.90;;;;;;4988445;28;20050;-77
2022/05/19 02:19:11;;;;;;;1.58;1.48;;;14.00;99.90;;;;;;4990702;28;20086;-77
2022/05/19 02:21:41;;;;;;;2.92;1.40;;;14.00;99.90;;;;;;4990189;28;20483;-77
2022/05/19 02:24:12;;;;;;;2.65;1.80;;;14.00;99.90;;;;;;4990148;28;20125;-76
2022/05/19 02:26:41;;;;;;;1.50;1.40;;;14.00;99.90;;;;;;5002942;28;20026;-77
2022/05/19 02:29:23;;;;;;;2.30;2.10;;;14.00;99.90;;;;;;5010671;28;20061;-77
2022/05/19 02:31:50;;;;;;;1.55;1.40;;;13.90;99.90;;;;;;5011813;28;20026;-77
2022/05/19 02:34:16;;;;;;;3.28;1.95;;;13.90;99.90;;;;;;5010603;28;20102;-77
2022/05/19 02:36:42;;;;;;;1.52;1.42;;;13.80;99.90;;;;;;5009948;28;20108;-77
2022/05/19 02:39:10;;;;;;;1.90;1.52;;;13.80;99.90;;;;;;5009253;28;20026;-77
2022/05/19 02:41:39;;;;;;;1.75;1.65;;;13.80;99.90;;;;;;5026671;28;20129;-77
2022/05/19 02:44:05;;;;;;;2.47;2.10;;;13.80;99.90;;;;;;5015297;28;20104;-77
2022/05/19 02:46:30;;;;;;;2.55;1.85;;;13.80;99.90;;;;;;5015035;28;20077;-77
2022/05/19 02:48:59;;;;;;;2.30;1.80;;;13.80;99.90;;;;;;5015480;28;20482;-77
2022/05/19 02:51:25;;;;;;;2.58;1.92;;;13.80;99.90;;;;;;5014551;28;20061;-78
2022/05/19 02:53:50;;;;;;;2.58;2.38;;;13.70;99.90;;;;;;5015454;28;20060;-77
2022/05/19 02:56:16;;;;;;;4.32;2.00;;;13.90;99.90;;;;;;5002060;28;20042;-77
2022/05/19 02:58:42;;;;;;;2.15;1.90;;;13.80;99.90;;;;;;4994860;28;20026;-77
2022/05/19 03:01:09;;;;;;;2.30;1.83;;;16.30;99.90;;;;;;4996291;28;20018;-76
2022/05/19 03:03:35;;;;;;;3.20;2.60;;;13.80;99.90;;;;;;4997423;28;20037;-77
2022/05/19 03:06:01;;;;;;;1.63;1.40;;;13.90;99.90;;;;;;4997045;28;20030;-77
2022/05/19 03:08:31;;;;;;;4.10;1.80;;;13.90;99.90;;;;;;4995053;28;20598;-77
2022/05/19 03:10:57;;;;;;;5.63;2.45;;;13.80;99.90;;;;;;4998210;28;20038;-77
2022/05/19 03:13:24;;;;;;;1.70;1.60;;;13.70;99.90;;;;;;4998222;28;20364;-77
2022/05/19 03:15:51;;;;;;;3.35;1.60;;;13.60;99.90;;;;;;4998298;28;20039;-77
2022/05/19 03:18:17;;;;;;;1.80;1.55;;;13.70;99.90;;;;;;4996601;28;20023;-77
2022/05/19 03:20:45;;;;;;;3.67;1.58;;;13.70;99.90;;;;;;4995741;28;20034;-76
2022/05/19 03:23:11;;;;;;;1.77;1.67;;;13.60;99.90;;;;;;4996150;28;20049;-77
2022/05/19 03:25:40;;;;;;;1.48;1.38;;;13.50;99.90;;;;;;4994960;28;20118;-77
2022/05/19 03:28:06;;;;;;;2.10;1.90;;;13.50;99.90;;;;;;4997506;28;20018;-77
2022/05/19 03:30:31;;;;;;;1.65;1.52;;;13.50;99.90;;;;;;5013321;28;20390;-77
2022/05/19 03:32:58;;;;;;;2.05;1.80;;;13.40;99.90;;;;;;5014631;28;20022;-77
2022/05/19 03:35:24;;;;;;;1.95;1.77;;;;;;;;;;5014738;28;20788;-77
2022/05/19 03:37:51;;;;;;;1.92;1.83;;;13.40;99.90;;;;;;5014248;28;20052;-77
2022/05/19 03:40:17;;;;;;;2.03;1.83;;;13.40;99.90;;;;;;5013433;28;20129;-77
2022/05/19 03:42:43;;;;;;;1.83;1.73;;;13.40;99.90;;;;;;5014836;28;20092;-77
2022/05/19 03:45:09;;;;;;;1.77;1.67;;;13.40;99.90;;;;;;5016501;28;20430;-77
2022/05/19 03:47:35;;;;;;;3.08;1.80;;;13.30;99.90;;;;;;5015969;28;20034;-77
2022/05/19 03:50:00;;;;;;;3.20;2.03;;;13.40;99.90;;;;;;5017826;28;20394;-76
2022/05/19 03:52:26;;;;;;;6.10;1.73;;;13.50;99.90;;;;;;5016911;28;20185;-76
2022/05/19 03:54:53;;;;;;;1.60;1.50;;;13.50;99.90;;;;;;5016111;28;20065;-76
2022/05/19 03:57:21;;;;;;;1.25;1.15;;;13.50;99.90;;;;;;5015894;28;20045;-77
2022/05/19 03:59:47;;;;;;;2.17;1.83;;;13.60;99.90;;;;;;5017347;28;20022;-77
2022/05/19 04:02:13;;;;;;;2.17;1.88;;;13.60;99.90;;;;;;5017169;28;20534;-77
2022/05/19 04:04:41;;;;;;;1.92;1.60;;;13.50;99.90;;;;;;5016131;28;20127;-77
2022/05/19 04:07:07;;;;;;;2.03;1.75;;;13.50;99.90;;;;;;5017056;28;20088;-77
2022/05/19 04:09:32;;;;;;;2.78;1.65;;;13.50;99.90;;;;;;5016336;28;20429;-76
2022/05/19 04:11:58;;;;;;;1.63;1.52;;;13.50;99.90;;;;;;5015295;28;20053;-77
2022/05/19 04:14:31;;;;;;;1.92;1.83;;;13.50;99.90;;;;;;5019525;28;20098;-77
2022/05/19 04:16:57;;;;;;;2.10;1.40;;;13.60;99.90;;;;;;5016621;28;20085;-76
2022/05/19 04:19:22;;;;;;;1.90;1.73;;;13.70;99.90;;;;;;5016499;28;20018;-77
2022/05/19 04:21:48;;;;;;;2.20;1.45;;;13.90;99.90;;;;;;5014371;28;20034;-77
2022/05/19 04:24:14;;;;;;;2.15;1.83;;;14.00;99.90;;;;;;5022464;28;20125;-76
2022/05/19 04:26:39;;;;;;;3.05;1.60;;;14.10;99.90;;;;;;5021429;28;20084;-77
2022/05/19 04:29:05;;;;;;;4.80;1.38;;;14.10;99.90;;;;;;5022841;28;20026;-76
2022/05/19 04:31:31;;;;;;;1.85;1.58;;;14.20;99.90;;;;;;5021508;28;20038;-76
2022/05/19 04:33:57;;;;;;;1.40;1.30;;;14.30;99.90;;;;;;5020150;28;20038;-76
2022/05/19 04:36:22;;;;;;;3.13;1.75;;;14.40;99.90;;;;;;5013957;28;20075;-76
2022/05/19 04:38:48;;;;;;;1.42;1.30;;;14.60;99.90;;;;;;5000589;28;20030;-76
2022/05/19 04:41:14;;;;;;;3.33;1.45;;;14.70;99.90;;;;;;5011263;28;20105;-76
2022/05/19 04:43:39;;;;;;;2.00;1.35;;;14.80;99.90;;;;;;5012729;28;20507;-76
2022/05/19 04:46:05;;;;;;;1.67;1.42;;;14.80;99.90;;;;;;5015773;28;20195;-77
2022/05/19 04:48:31;;;;;;;1.58;1.48;;;14.90;99.90;;;;;;5016009;28;20106;-77
2022/05/19 04:50:58;;;;;;;4.28;1.73;;;15.00;99.90;;;;;;5011186;28;20033;-76
2022/05/19 04:53:25;;;;;;;1.67;1.58;;;15.10;99.90;;;;;;5012063;28;20080;-77
2022/05/19 04:55:52;;;;;;;2.53;1.67;;;15.20;99.90;;;;;;5011229;28;20022;-77
2022/05/19 04:58:18;;;;;;;1.40;1.10;;;15.20;99.90;;;;;;5010666;28;20025;-76
2022/05/19 05:00:46;;;;;;;1.67;1.58;;;15.20;99.90;;;;;;5012856;28;20045;-76
2022/05/19 05:03:11;;;;;;;3.55;1.65;;;15.30;99.90;;;;;;5030161;28;20125;-75
2022/05/19 05:05:37;;;;;;;1.55;1.20;;;15.40;99.90;;;;;;5010768;28;20057;-76
2022/05/19 05:08:03;;;;;;;1.35;1.25;;;15.50;99.90;;;;;;5010576;28;20071;-77
2022/05/19 05:10:28;;;;;;;2.67;1.45;;;15.60;99.90;;;;;;5012099;28;20041;-77
2022/05/19 05:12:54;;;;;;;1.85;1.38;;;15.70;99.90;;;;;;5015801;28;20018;-79
2022/05/19 05:15:20;;;;;;;1.48;1.40;;;15.90;99.90;;;;;;5009414;28;20471;-79
2022/05/19 05:17:46;;;;;;;2.63;1.92;;;16.10;99.90;;;;;;5025561;28;20042;-79
2022/05/19 05:20:15;;;;;;;1.92;1.50;;;16.20;99.90;;;;;;5025951;28;20037;-80
2022/05/19 05:22:41;;;;;;;2.63;1.10;;;16.40;99.90;;;;;;5010738;28;20425;-80
2022/05/19 05:25:11;;;;;;;1.17;1.17;;;16.60;99.90;;;;;;5009290;28;20464;-79
2022/05/19 05:27:37;;;;;;;1.40;1.30;;;16.80;99.90;;;;;;5011012;28;20033;-79
2022/05/19 05:30:04;;;;;;;2.22;1.60;;;16.80;99.90;;;;;;5009446;28;20285;-80
2022/05/19 05:32:30;;;;;;;3.38;2.22;;;16.90;99.90;;;;;;5009822;28;20120;-79
2022/05/19 05:34:56;;;;;;;2.83;1.50;;;17.20;99.90;;;;;;5010233;28;20058;-80
2022/05/19 05:37:22;;;;;;;1.75;1.65;;;17.40;99.90;;;;;;5000758;28;20029;-80
2022/05/19 05:39:48;;;;;;;1.45;1.35;;;17.60;99.90;;;;;;5004765;28;20065;-79
2022/05/19 05:42:14;;;;;;;2.40;1.52;;;;;;;;;;5002756;28;20023;-80
2022/05/19 05:44:40;;;;;;;1.90;1.48;;;;;;;;;;5008240;28;20316;-80
2022/05/19 05:47:06;;;;;;;1.30;1.20;;;18.30;99.90;;;;;;5009712;28;20049;-79
2022/05/19 05:49:32;;;;;;;2.30;1.10;;;18.70;99.90;;;;;;4999644;28;20471;-80
2022/05/19 05:51:57;;;;;;;2.33;1.10;;;18.90;99.90;;;;;;5004315;28;20423;-80
2022/05/19 05:54:23;;;;;;;2.00;1.30;;;19.10;99.90;;;;;;5012146;28;20088;-79
2022/05/19 05:56:50;;;;;;;1.58;1.27;;;19.50;99.90;;;;;;5010187;28;20040;-79
2022/05/19 05:59:16;;;;;;;2.58;1.10;;;19.70;99.90;;;;;;5025225;28;20030;-79
2022/05/19 06:01:42;;;;;;;2.17;1.40;;;19.90;99.90;;;;;;5010062;28;20022;-80
2022/05/19 06:04:07;;;;;;;2.95;1.50;;;20.10;99.90;;;;;;5010238;28;20068;-79
2022/05/19 06:06:33;;;;;;;1.42;1.27;;;20.30;99.90;;;;;;5008766;28;20113;-79
2022/05/19 06:08:58;;;;;;;1.10;1.00;;;20.60;99.90;;;;;;5008497;28;20030;-79
2022/05/19 06:11:24;;;;;;;3.33;1.20;;;20.90;99.90;;;;;;5009943;28;20080;-79
2022/05/19 06:13:50;;;;;;;1.58;1.13;;;21.20;99.90;;;;;;5009950;28;20022;-79
2022/05/19 06:16:17;;;;;;;1.00;0.90;;;21.10;99.90;;;;;;5025079;28;20057;-79
2022/05/19 06:18:43;;;;;;;2.35;1.08;;;21.40;99.90;;;;;;5024892;28;20029;-79
2022/05/19 06:21:09;;;;;;;3.67;1.30;;;;;;;;;;5025027;28;20033;-79
2022/05/19 06:23:34;;;;;;;3.38;1.10;;;22.20;99.90;;;;;;5009835;28;20018;-80
2022/05/19 06:26:01;;;;;;;1.40;1.30;;;22.40;99.90;;;;;;5008759;28;20044;-79
2022/05/19 06:28:27;;;;;;;1.05;1.02;;;21.90;99.90;;;;;;5009706;28;20092;-78
2022/05/19 06:30:53;;;;;;;5.03;1.00;;;22.10;99.90;;;;;;5019232;28;20038;-79
2022/05/19 06:33:20;;;;;;;1.00;0.88;;;21.90;99.90;;;;;;4996814;28;20022;-79
2022/05/19 06:35:46;;;;;;;1.60;0.98;;;;;;;;;;5002755;28;20317;-79
2022/05/19 06:38:15;;;;;;;3.45;1.30;;;;;;;;;;5003761;28;20057;-79
2022/05/19 06:40:41;;;;;;;2.25;1.00;;;;;;;;;;4997306;28;20022;-79
2022/05/19 06:43:09;;;;;;;1.45;0.90;;;22.30;99.90;;;;;;4991495;28;20507;-79
2022/05/19 06:45:36;;;;;;;1.35;1.17;;;22.40;99.90;;;;;;4988850;28;20049;-79
2022/05/19 06:48:01;;;;;;;1.33;1.23;;;23.50;99.90;;;;;;4988607;28;20121;-79
2022/05/19 06:50:27;;;;;;;2.60;0.93;;;23.50;99.90;;;;;;4990046;28;20198;-79
2022/05/19 06:52:59;;;;;;;5.03;1.65;;;24.20;99.90;;;;;;4990159;28;20034;-79
2022/05/19 06:55:27;;;;;;;0.93;0.88;;;25.40;99.90;;;;;;4990026;28;20022;-80
2022/05/19 06:57:53;;;;;;;0.90;0.90;;;29.50;94.30;;;;;;4988669;28;20028;-81
2022/05/19 07:00:21;;;;;;;2.10;0.77;;;26.40;79.90;;;;;;4988691;28;20026;-84
2022/05/19 07:02:50;;;;;;;1.67;0.90;;;26.50;80.60;;;;;;4988658;28;20033;-83
2022/05/19 07:05:18;;;;;;;2.00;0.77;;;26.50;85.40;;;;;;5009545;28;20037;-82
2022/05/19 07:07:46;;;;;;;2.53;1.02;;;26.70;80.10;;;;;;5008141;28;20058;-82
2022/05/19 07:10:18;;;;;;;1.50;1.00;;;27.20;75.10;;;;;;4988865;28;20034;-83
2022/05/19 07:12:44;;;;;;;1.00;0.93;;;27.20;71.90;;;;;;4988314;28;20498;-87
2022/05/19 07:15:12;;;;;;;1.00;1.00;;;27.30;72.10;;;;;;5006780;28;20113;-78
2022/05/19 07:17:39;;;;;;;6.07;1.15;;;27.70;70.90;;;;;;5006542;28;20447;-76
2022/05/19 07:22:50;;;;;;;2.08;0.82;;;28.80;64.20;;;;;;4987385;28;20418;-81
2022/05/19 07:25:16;;;;;;;2.97;1.08;;;28.30;63.80;;;;;;4987719;28;20037;-76
2022/05/19 07:27:42;;;;;;;2.42;0.90;;;29.10;64.10;;;;;;4987477;28;20023;-80
2022/05/19 07:30:09;;;;;;;1.95;0.90;;;29.80;63.20;;;;;;4988326;28;20033;-78
2022/05/19 07:32:35;;;;;;;1.75;1.13;;;30.20;59.80;;;;;;4990479;28;20045;-79
2022/05/19 07:35:01;;;;;;;4.20;1.17;;;28.50;61.70;;;;;;4991349;28;20018;-80
2022/05/19 07:37:27;;;;;;;1.73;1.10;;;28.40;62.20;;;;;;4991799;28;20030;-80
2022/05/19 07:39:54;;;;;;;1.30;1.20;;;28.40;63.80;;;;;;4991158;28;20390;-81
2022/05/19 07:42:20;;;;;;;3.63;1.10;;;30.00;64.60;;;;;;4990390;28;20038;-78
2022/05/19 07:44:46;;;;;;;1.35;1.27;;;29.40;62.60;;;;;;4991087;28;20044;-79
2022/05/19 07:47:14;;;;;;;3.97;1.15;;;28.80;62.60;;;;;;4989209;28;20030;-79
2022/05/19 07:49:40;;;;;;;3.03;1.33;;;29.20;62.10;;;;;;4989752;28;20023;-79
2022/05/19 07:52:07;;;;;;;0.90;0.90;;;29.80;61.50;;;;;;4988904;28;20036;-78
2022/05/19 07:54:33;;;;;;;2.78;1.33;;;30.30;58.80;;;;;;4988704;28;20054;-79
2022/05/19 07:56:59;;;;;;;1.80;1.10;;;30.50;59.50;;;;;;4997248;28;20030;-76
2022/05/19 07:59:25;;;;;;;1.98;1.17;;;30.90;59.10;;;;;;5009249;28;20028;-75
2022/05/19 08:01:51;;;;;;;1.40;1.13;;;29.60;56.70;;;;;;5008924;28;20032;-77
2022/05/19 08:04:17;;;;;;;3.20;1.95;;;27.10;61.00;;;;;;4991234;28;20026;-78
2022/05/19 08:06:43;;;;;;;2.15;1.38;;;26.70;64.00;;;;;;4988221;28;20081;-75
2022/05/19 08:11:54;;;;;;;3.35;1.17;;;27.80;61.60;;;;;;4989915;28;20164;-78
2022/05/19 08:17:10;;;;;;;2.83;1.40;;;28.60;62.10;;;;;;4989108;28;20147;-79
2022/05/19 08:19:37;;;;;;;2.17;1.33;;;28.30;62.20;;;;;;4989711;28;20034;-78
2022/05/19 08:22:04;;;;;;;2.13;1.42;;;28.70;63.30;;;;;;4988124;28;20026;-77
2022/05/19 08:24:30;;;;;;;5.57;1.38;;;29.30;61.30;;;;;;4988450;28;20058;-75
2022/05/19 08:26:56;;;;;;;1.42;1.33;;;29.60;59.20;;;;;;4988135;28;20084;-76
2022/05/19 08:29:24;;;;;;;1.38;1.25;;;29.80;59.20;;;;;;4989335;28;20412;-76
2022/05/19 08:31:50;;;;;;;2.17;1.20;;;29.90;58.50;;;;;;4989279;28;20113;-77
2022/05/19 08:34:16;;;;;;;4.45;1.10;;;30.30;58.30;;;;;;4989073;28;20507;-76
2022/05/19 08:36:42;;;;;;;2.80;1.27;;;30.10;58.20;;;;;;4989361;28;20045;-76
2022/05/19 08:39:07;;;;;;;2.70;1.50;;;30.50;56.70;;;;;;4988069;28;20033;-77
2022/05/19 08:41:58;;;;;;;1.08;0.98;;;30.40;57.70;;;;;;4987320;28;20030;-76
2022/05/19 08:44:29;;;;;;;5.60;1.40;;;30.80;55.10;;;;;;4989407;28;20034;-76
2022/05/19 08:46:57;;;;;;;1.13;1.02;;;30.60;56.40;;;;;;4993566;28;20506;-77
2022/05/19 08:49:42;;;;;;;1.75;1.30;;;30.60;56.90;;;;;;4994526;28;20487;-76
2022/05/19 08:52:15;;;;;;;2.63;1.10;;;30.60;58.30;;;;;;4989023;28;20053;-79
2022/05/19 08:54:44;;;;;;;3.97;1.00;;;30.70;57.40;;;;;;4987355;28;20057;-79
2022/05/19 08:57:21;;;;;;;2.78;1.23;;;30.60;58.20;;;;;;5003161;28;20021;-78
2022/05/19 09:00:12;;;;;;;1.17;1.10;;;29.70;57.70;;;;;;5012472;28;20379;-78
2022/05/19 09:02:52;;;;;;;3.10;1.77;;;29.40;56.40;;;;;;5007090;28;20152;-78
2022/05/19 09:05:37;;;;;;;3.92;1.23;;;29.30;57.80;;;;;;5007100;28;20030;-77
2022/05/19 09:08:40;;;;;;;3.88;1.33;;;29.00;58.30;;;;;;5009431;28;20045;-77
2022/05/19 09:11:21;;;;;;;3.15;2.08;;;28.90;59.50;;;;;;5009398;28;20418;-77
2022/05/19 09:14:03;;;;;;;1.90;1.30;;;28.70;60.90;;;;;;5017016;28;20053;-79
2022/05/19 09:16:32;;;;;;;2.38;1.05;;;29.00;60.10;;;;;;5011383;28;20140;-78
2022/05/19 09:19:14;;;;;;;1.50;1.10;;;29.10;59.20;;;;;;5006100;28;20125;-78
2022/05/19 09:21:42;;;;;;;4.15;1.63;;;29.40;60.00;;;;;;5004938;28;20430;-77
2022/05/19 09:24:11;;;;;;;1.33;1.20;;;29.60;61.00;;;;;;5005029;28;20100;-78
2022/05/19 09:26:36;;;;;;;;;;;29.70;58.80;;;;;;5006290;28;20800;-78
2022/05/19 09:29:07;;;;;;;2.53;1.10;;;30.00;59.00;;;;;;5004929;28;19910;-78
2022/05/19 09:31:39;;;;;;;2.60;1.35;;;30.60;58.20;;;;;;5004981;28;20120;-75
2022/05/19 09:34:07;;;;;;;2.05;0.95;;;30.90;57.50;;;;;;5005155;28;20439;-78
2022/05/19 09:36:49;;;;;;;4.78;1.20;;;30.80;56.80;;;;;;5005876;28;20033;-78
2022/05/19 09:39:17;;;;;;;2.20;1.30;;;31.00;58.10;;;;;;5004724;28;20426;-78
2022/05/19 09:41:51;;;;;;;1.88;1.10;;;30.50;58.60;;;;;;5005879;28;20025;-79
2022/05/19 09:44:29;;;;;;;4.63;1.88;;;30.50;59.00;;;;;;5006189;28;20029;-78
2022/05/19 09:46:55;;;;;;;2.38;1.50;;;30.60;57.20;;;;;;5006764;28;20026;-79
2022/05/19 09:49:30;;;;;;;3.58;1.48;;;30.70;59.40;;;;;;5006708;28;20506;-78
2022/05/19 09:52:01;;;;;;;2.72;1.20;;;30.60;56.50;;;;;;5007629;28;20087;-78
2022/05/19 09:54:32;;;;;;;1.85;1.08;;;30.50;57.60;;;;;;5006016;28;20076;-79
2022/05/19 09:57:27;;;;;;;2.13;1.10;;;30.60;57.50;;;;;;5007516;28;20108;-78
2022/05/19 09:59:57;;;;;;;3.25;1.30;;;30.40;57.10;;;;;;5007347;28;20030;-75
2022/05/19 10:02:36;;;;;;;1.60;1.17;;;29.70;58.80;;;;;;5007284;28;20044;-76
2022/05/19 10:05:18;;;;;;;3.65;1.50;;;29.80;60.70;;;;;;5007320;28;20589;-75
2022/05/19 10:07:49;;;;;;;1.77;1.00;;;30.10;58.30;;;;;;5006981;28;20485;-75
2022/05/19 10:10:27;;;;;;;1.15;1.02;;;30.20;59.50;;;;;;5022150;28;20103;-75
2022/05/19 10:12:56;;;;;;;4.18;1.40;;;31.10;56.20;;;;;;5007695;28;20128;-75
2022/05/19 10:15:26;;;;;;;1.70;1.10;;;30.80;56.60;;;;;;5006848;28;20018;-79
2022/05/19 10:18:16;;;;;;;1.77;1.52;;;30.80;59.60;;;;;;5007014;28;20568;-77
2022/05/19 10:20:52;;;;;;;1.85;1.20;;;30.70;56.40;;;;;;5005889;28;20029;-78
2022/05/19 10:23:38;;;;;;;1.30;1.20;;;30.50;56.20;;;;;;5006744;28;20437;-77
2022/05/19 10:26:26;;;;;;;2.92;1.33;;;30.90;56.30;;;;;;5006854;28;20022;-77
2022/05/19 10:32:32;;;;;;;4.50;2.63;;;30.80;56.90;;;;;;5009066;28;20049;-78
2022/05/19 10:35:14;;;;;;;1.27;1.00;;;31.00;56.50;;;;;;5007063;28;20072;-76
2022/05/19 10:38:15;;;;;;;4.57;1.35;;;30.80;56.20;;;;;;5006885;28;20032;-76
2022/05/19 10:40:50;;;;;;;4.35;1.50;;;30.80;57.20;;;;;;4998146;28;20221;-78
2022/05/19 10:43:42;;;;;;;1.60;1.23;;;30.80;56.40;;;;;;5012643;28;20017;-77
2022/05/19 10:46:13;;;;;;;4.13;1.20;;;31.10;56.70;;;;;;5005819;28;20057;-75
2022/05/19 10:48:38;;;;;;;2.22;1.50;;;30.70;56.30;;;;;;5007234;28;20030;-76
2022/05/19 10:51:11;;;;;;;2.47;1.50;;;31.00;56.10;;;;;;5007077;28;20030;-75
2022/05/19 10:53:57;;;;;;;3.55;1.30;;;30.80;57.50;;;;;;5025684;28;20080;-75
2022/05/19 10:56:35;;;;;;;6.43;1.52;;;31.00;56.80;;;;;;5010086;28;20063;-74
2022/05/19 10:59:19;;;;;;;1.83;1.10;;;31.20;53.70;;;;;;5008338;28;20022;-74
2022/05/19 11:02:03;;;;;;;1.60;1.15;;;31.50;53.50;;;;;;5006343;28;20025;-74
2022/05/19 11:05:06;;;;;;;3.38;1.23;;;31.90;52.50;;;;;;5007297;28;20033;-75
2022/05/19 11:07:35;;;;;;;1.63;1.25;;;32.30;52.00;;;;;;5014024;28;20408;-74
2022/05/19 11:10:04;;;;;;;3.83;1.40;;;32.50;52.40;;;;;;5008391;28;20522;-74
2022/05/19 11:13:07;;;;;;;2.10;1.15;;;31.90;52.90;;;;;;5008566;28;20053;-75
2022/05/19 11:15:44;;;;;;;1.55;1.20;;;31.50;53.40;;;;;;5009986;28;20134;-76
2022/05/19 11:18:15;;;;;;;3.05;1.40;;;31.50;54.90;;;;;;5008602;28;20116;-74
2022/05/19 11:20:59;;;;;;;3.00;1.20;;;31.40;56.00;;;;;;5009788;28;20422;-74
2022/05/19 11:23:39;;;;;;;1.65;1.40;;;31.40;57.80;;;;;;5008555;28;20100;-74
2022/05/19 11:26:26;;;;;;;3.28;1.30;;;30.30;57.60;;;;;;5010162;28;20081;-75
2022/05/19 11:29:00;;;;;;;1.48;1.38;;;30.90;58.20;;;;;;5010189;28;20069;-74
2022/05/19 11:31:35;;;;;;;2.78;1.45;;;31.20;61.20;;;;;;5008060;28;20034;-74
2022/05/19 11:34:15;;;;;;;1.90;1.17;;;31.80;58.90;;;;;;5008435;28;20056;-74
2022/05/19 11:36:57;;;;;;;2.53;1.20;;;32.20;54.60;;;;;;5006845;28;20026;-75
2022/05/19 11:40:02;;;;;;;3.63;2.05;;;31.80;53.70;;;;;;5006890;28;20483;-74
2022/05/19 11:42:31;;;;;;;4.85;2.30;;;31.30;52.90;;;;;;4985442;28;20044;-75
2022/05/19 11:44:57;;;;;;;2.15;1.15;;;29.90;54.70;;;;;;5007015;28;20359;-76
2022/05/19 11:56:19;;;;;;;3.15;1.20;;;29.80;54.90;;;;;;5009481;28;20040;-75
2022/05/19 11:58:46;;;;;;;1.67;1.13;;;30.00;57.00;;;;;;5009740;28;20360;-76
2022/05/19 12:01:31;;;;;;;6.15;1.55;;;29.70;54.50;;;;;;5024639;28;20108;-77
2022/05/19 12:04:20;;;;;;;2.85;1.00;;;29.50;55.70;;;;;;5024488;28;20034;-77
2022/05/19 12:06:50;;;;;;;3.05;1.17;;;29.50;55.40;;;;;;5009719;28;20504;-79
2022/05/19 12:09:44;;;;;;;5.45;3.03;;;29.30;55.20;;;;;;5009209;28;20042;-78
2022/05/19 12:12:24;;;;;;;4.05;1.20;;;29.20;56.30;;;;;;5007692;28;20042;-78
2022/05/19 12:15:03;;;;;;;1.92;1.10;;;28.50;61.20;;;;;;5024775;28;20026;-76
2022/05/19 12:17:41;;;;;;;4.70;1.60;;;28.30;63.40;;;;;;5007433;28;20065;-80
2022/05/19 12:20:32;;;;;;;5.60;1.75;;;26.30;78.20;;;;;;5009676;28;20037;-79
2022/05/19 12:23:25;;;;;;;12.43;2.38;;;22.70;99.90;;;;;;5009243;28;20490;-78
2022/05/19 12:26:17;;;;;;;11.02;2.38;;;21.80;99.90;;;;;;5025607;28;20385;-76
2022/05/19 12:29:13;;;;;;;2.50;2.17;;;20.20;99.90;;;;;;5009343;28;20054;-77
2022/05/19 12:31:59;;;;;;;5.95;3.28;;;19.20;99.90;;;;;;5023335;28;20030;-77
2022/05/19 12:34:31;;;;;;;8.68;2.97;;;19.10;99.90;;;;;;5009124;28;20022;-80
2022/05/19 12:37:31;;;;;;;8.43;2.72;;;19.20;99.90;;;;;;5023540;28;20044;-75
2022/05/19 12:40:24;;;;;;;3.88;2.47;;;19.00;99.90;;;;;;5027836;28;20037;-79
2022/05/19 12:43:07;;;;;;;7.60;2.92;;;19.10;99.90;;;;;;5015635;28;20116;-79
2022/05/19 12:45:42;;;;;;;9.00;3.33;;;19.10;99.90;;;;;;5006747;28;20029;-80
2022/05/19 12:48:10;;;;;;;10.65;3.53;;;19.30;99.90;;;;;;5022059;28;20112;-74
2022/05/19 12:50:51;;;;;;;7.07;2.95;;;19.40;99.90;;;;;;5007604;28;20044;-80
2022/05/19 12:53:23;;;;;;;5.72;2.45;;;19.50;99.90;;;;;;5006754;28;20174;-74
2022/05/19 12:55:56;;;;;;;3.45;2.47;;;19.40;99.90;;;;;;4988199;28;20030;-75
2022/05/19 12:58:37;;;;;;;10.25;2.70;;;19.50;99.90;;;;;;5004106;28;20053;-75
2022/05/19 13:01:21;;;;;;;7.45;2.70;;;19.60;99.90;;;;;;4986998;28;20036;-74
2022/05/19 13:04:18;;;;;;;9.05;2.63;;;19.60;99.90;;;;;;4989252;28;20153;-75
2022/05/19 13:07:15;;;;;;;5.90;2.50;;;19.80;99.90;;;;;;4987124;28;20030;-75
2022/05/19 13:09:50;;;;;;;6.43;3.47;;;19.70;99.90;;;;;;4988843;28;20434;-75
2022/05/19 13:12:21;;;;;;;3.53;3.22;;;19.90;99.90;;;;;;4987512;28;20450;-74
2022/05/19 13:14:55;;;;;;;4.90;2.70;;;20.20;99.90;;;;;;4986997;28;20027;-74
2022/05/19 13:17:42;;;;;;;3.72;2.90;;;20.60;99.90;;;;;;4986791;28;20693;-75
2022/05/19 13:20:22;;;;;;;4.22;2.75;;;21.10;99.90;;;;;;4988623;28;20027;-78
2022/05/19 13:22:53;;;;;;;3.50;2.08;;;21.90;99.90;;;;;;5007557;28;20497;-75
2022/05/19 13:25:21;;;;;;;3.58;2.58;;;22.90;99.90;;;;;;5006728;28;20053;-76
2022/05/19 13:30:43;;;;;;;4.22;2.15;;;24.50;99.90;;;;;;5006879;28;20049;-77
2022/05/19 13:33:31;;;;;;;6.45;1.83;;;25.00;99.90;;;;;;5003488;28;20022;-75
2022/05/19 13:36:03;;;;;;;4.15;1.80;;;25.90;99.90;;;;;;5007466;28;20494;-76
2022/05/19 13:38:29;;;;;;;8.60;2.65;;;26.40;99.90;;;;;;5007593;28;20033;-78